Oceano, California
Current Conditions -  °F | °C
As of 4:56 AM on Monday 20 Oct 2014 (Local Time) from KSBP Reporting Station
Overcast Overcast  
Wind Chill: 62°   Ceiling: 1300
Heat Index: 62°   Visibility: 10mi
Dew Point: 57°   Wind: 5mph
Humidity: 84%   Direction: 360°N
Pressure: 29.92"   Gusts: NA
Location:  35.1°N, 120.61°W
Report Text: KSBP 201156Z AUTO 36004KT 10SM OVC013 17/14 A2992 RMK AO2 SLP131 T01670139 10167 20139 51001
Loading
Personal Weather Stations






























Interactive Weather Map
Tropical Storm Tracking
New forecast layout! Learn more

10-Day Weather Forecast

Advertisements
Track Severe Weather on mobile